createdAt,value
2022-11-15T00:00:51.159Z,37.95
2022-11-15T00:03:18.873Z,41.83
2022-11-15T00:05:46.314Z,46.15
2022-11-15T00:08:13.400Z,42.63
2022-11-15T00:10:40.549Z,44.55
2022-11-15T00:13:11.527Z,41.28
2022-11-15T00:15:42.321Z,44.35
2022-11-15T00:18:18.942Z,41.15
2022-11-15T00:20:46.036Z,47.70
2022-11-15T00:23:13.189Z,54.03
2022-11-15T00:25:40.387Z,51.03
2022-11-15T00:28:07.573Z,51.22
2022-11-15T00:30:35.698Z,46.15
2022-11-15T00:33:06.751Z,57.60
2022-11-15T00:35:34.805Z,56.70
2022-11-15T00:38:02.242Z,47.20
2022-11-15T00:40:29.684Z,55.30
2022-11-15T00:42:56.883Z,55.05
2022-11-15T00:45:24.234Z,53.13
2022-11-15T00:47:51.547Z,53.95
2022-11-15T00:50:18.924Z,53.17
2022-11-15T00:52:46.496Z,57.80
2022-11-15T00:55:20.422Z,45.00
2022-11-15T00:57:47.824Z,56.95
2022-11-15T01:00:15.275Z,55.95
2022-11-15T01:02:42.371Z,56.65
2022-11-15T01:05:09.963Z,50.65
2022-11-15T01:07:37.172Z,61.03
2022-11-15T01:10:04.953Z,60.85
2022-11-15T01:12:32.099Z,51.50
2022-11-15T01:14:59.213Z,57.33
2022-11-15T01:17:26.394Z,59.70
2022-11-15T01:19:53.478Z,56.50
2022-11-15T01:22:20.592Z,62.13
2022-11-15T01:24:47.625Z,59.20
2022-11-15T01:27:14.778Z,57.08
2022-11-15T01:29:41.927Z,58.97
2022-11-15T01:32:09.185Z,63.28
2022-11-15T01:34:36.436Z,67.28
2022-11-15T01:37:03.642Z,61.97
2022-11-15T01:39:30.941Z,63.65
2022-11-15T01:41:58.204Z,65.93
2022-11-15T01:44:43.405Z,66.88
2022-11-15T01:47:21.912Z,53.95
2022-11-15T01:49:54.759Z,56.15
2022-11-15T01:52:23.561Z,67.67
2022-11-15T01:54:52.414Z,62.67
2022-11-15T01:57:19.599Z,57.15
2022-11-15T01:59:47.322Z,60.97
2022-11-15T02:02:14.718Z,57.55
2022-11-15T02:04:46.346Z,60.03
2022-11-15T02:07:15.045Z,61.45
2022-11-15T02:09:42.277Z,67.95
2022-11-15T02:12:11.232Z,53.85
2022-11-15T02:14:40.796Z,59.20
2022-11-15T02:17:16.963Z,54.33
2022-11-15T02:20:02.854Z,56.03
2022-11-15T02:22:42.790Z,57.92
2022-11-15T02:25:28.711Z,61.10
2022-11-15T02:28:14.848Z,55.67
2022-11-15T02:30:47.634Z,56.40
2022-11-15T02:33:23.924Z,55.45
2022-11-15T02:35:59.831Z,56.50
2022-11-15T02:38:41.406Z,53.95
2022-11-15T02:41:15.190Z,53.50
2022-11-15T02:43:57.851Z,51.17
2022-11-15T02:46:58.469Z,48.35
2022-11-15T02:49:27.237Z,48.95
2022-11-15T02:51:54.790Z,53.00
2022-11-15T02:54:30.910Z,48.05
2022-11-15T02:57:01.149Z,52.80
2022-11-15T02:59:47.140Z,51.40
2022-11-15T03:02:22.233Z,44.33
2022-11-15T03:04:55.363Z,50.15
2022-11-15T03:07:27.154Z,44.88
2022-11-15T03:09:58.644Z,45.23
2022-11-15T03:12:29.805Z,44.75
2022-11-15T03:15:01.362Z,46.22
2022-11-15T03:17:31.754Z,48.20
2022-11-15T03:20:00.579Z,50.90
2022-11-15T03:22:29.510Z,48.27
2022-11-15T03:24:58.971Z,52.70
2022-11-15T03:27:29.325Z,46.85
2022-11-15T03:30:03.785Z,46.13
2022-11-15T03:32:32.366Z,45.75
2022-11-15T03:35:02.723Z,53.30
2022-11-15T03:37:39.085Z,56.10
2022-11-15T03:40:07.250Z,49.65
2022-11-15T03:42:52.710Z,53.17
2022-11-15T03:45:23.843Z,56.17
2022-11-15T03:47:53.552Z,54.03
2022-11-15T03:50:22.203Z,51.10
2022-11-15T03:52:50.004Z,52.30
2022-11-15T03:55:19.026Z,55.65
2022-11-15T03:57:46.521Z,55.65
2022-11-15T04:00:13.852Z,60.47
2022-11-15T04:02:41.053Z,54.47
2022-11-15T04:05:08.378Z,55.72
2022-11-15T04:07:35.540Z,48.88
2022-11-15T04:10:08.884Z,48.97
2022-11-15T04:12:37.461Z,54.17
2022-11-15T04:15:09.937Z,48.38
2022-11-15T04:17:38.111Z,43.88
2022-11-15T04:20:28.599Z,50.95
2022-11-15T04:23:15.405Z,44.85
2022-11-15T04:25:43.157Z,46.53
2022-11-15T04:28:10.533Z,44.30
2022-11-15T04:30:37.710Z,49.70
2022-11-15T04:33:05.204Z,44.47
2022-11-15T04:35:32.281Z,47.17
2022-11-15T04:37:59.924Z,50.87
2022-11-15T04:40:27.041Z,44.70
2022-11-15T04:42:56.273Z,45.45
2022-11-15T04:45:25.303Z,47.55
2022-11-15T04:47:52.361Z,43.25
2022-11-15T04:50:19.546Z,39.70
2022-11-15T04:52:52.518Z,39.00
2022-11-15T04:55:19.670Z,38.90
2022-11-15T04:57:46.752Z,38.38
2022-11-15T05:00:15.225Z,35.53
2022-11-15T05:03:00.880Z,38.97
2022-11-15T05:05:27.939Z,37.83
2022-11-15T05:07:54.976Z,34.22
2022-11-15T05:10:22.119Z,39.05
2022-11-15T05:12:49.266Z,39.35
2022-11-15T05:15:16.402Z,35.97
2022-11-15T05:17:43.435Z,38.92
2022-11-15T05:20:10.884Z,33.65
2022-11-15T05:22:37.961Z,34.97
2022-11-15T05:25:05.390Z,35.88
2022-11-15T05:27:32.525Z,31.90
2022-11-15T05:29:59.831Z,33.85
2022-11-15T05:32:27.234Z,38.15
2022-11-15T05:34:54.451Z,35.40
2022-11-15T05:37:21.596Z,37.33
2022-11-15T05:39:48.721Z,32.53
2022-11-15T05:42:16.700Z,39.22
2022-11-15T05:44:45.969Z,33.08
2022-11-15T05:47:14.425Z,39.53
2022-11-15T05:49:42.981Z,30.98
2022-11-15T05:52:11.879Z,35.57
2022-11-15T05:54:39.123Z,32.95
2022-11-15T05:57:06.509Z,32.53
2022-11-15T05:59:34.875Z,32.17
2022-11-15T06:02:02.042Z,33.05
2022-11-15T06:04:29.417Z,30.97
2022-11-15T06:06:56.540Z,35.58
2022-11-15T06:09:23.657Z,32.42
2022-11-15T06:11:50.844Z,34.40
2022-11-15T06:14:17.946Z,36.08
2022-11-15T06:16:45.455Z,38.17
2022-11-15T06:19:12.613Z,39.55
2022-11-15T06:21:39.637Z,32.20
2022-11-15T06:24:07.176Z,38.88
2022-11-15T06:26:34.622Z,36.55
2022-11-15T06:29:01.668Z,37.27
2022-11-15T06:31:28.786Z,33.47
2022-11-15T06:33:56.050Z,36.97
2022-11-15T06:36:23.225Z,30.17
2022-11-15T06:38:50.465Z,34.13
2022-11-15T06:41:18.660Z,30.27
2022-11-15T06:43:45.894Z,34.40
2022-11-15T06:46:15.856Z,33.15
2022-11-15T06:48:42.895Z,34.60
2022-11-15T06:51:09.992Z,30.90
2022-11-15T06:53:37.443Z,33.13
2022-11-15T06:56:05.844Z,32.55
2022-11-15T06:58:33.004Z,32.85
2022-11-15T07:01:01.072Z,29.17
2022-11-15T07:03:28.144Z,33.55
2022-11-15T07:05:56.165Z,34.60
2022-11-15T07:08:23.874Z,30.77
2022-11-15T07:10:51.261Z,30.65
2022-11-15T07:13:18.298Z,30.80
2022-11-15T07:15:45.465Z,30.13
2022-11-15T07:18:12.569Z,28.30
2022-11-15T07:20:40.577Z,29.48
2022-11-15T07:23:07.744Z,29.35
2022-11-15T07:25:35.471Z,31.10
2022-11-15T07:28:03.226Z,27.35
2022-11-15T07:30:30.406Z,28.03
2022-11-15T07:33:01.366Z,27.10
2022-11-15T07:35:29.355Z,30.45
2022-11-15T07:37:57.478Z,25.27
2022-11-15T07:40:25.065Z,29.77
2022-11-15T07:42:55.284Z,25.40
2022-11-15T07:45:23.362Z,29.92
2022-11-15T07:47:51.223Z,25.88
2022-11-15T07:50:18.678Z,24.02
2022-11-15T07:52:46.521Z,21.80
2022-11-15T07:55:13.792Z,25.20
2022-11-15T07:57:41.045Z,26.77
2022-11-15T08:00:08.602Z,24.13
2022-11-15T08:02:35.898Z,24.60
2022-11-15T08:05:03.104Z,23.58
2022-11-15T08:07:31.443Z,24.53
2022-11-15T08:09:59.449Z,26.15
2022-11-15T08:12:26.748Z,25.05
2022-11-15T08:14:53.985Z,25.80
2022-11-15T08:17:21.203Z,21.27
2022-11-15T08:19:48.930Z,23.63
2022-11-15T08:22:16.320Z,21.90
2022-11-15T08:24:43.566Z,18.40
2022-11-15T08:27:15.573Z,19.45
2022-11-15T08:29:43.962Z,21.15
2022-11-15T08:32:11.778Z,18.77
2022-11-15T08:34:39.554Z,16.80
2022-11-15T08:37:06.746Z,18.25
2022-11-15T08:39:33.830Z,17.02
2022-11-15T08:42:01.116Z,16.70
2022-11-15T08:44:28.308Z,15.50
2022-11-15T08:46:55.545Z,16.85
2022-11-15T08:49:22.759Z,16.42
2022-11-15T08:51:50.018Z,15.13
2022-11-15T08:54:17.308Z,14.50
2022-11-15T08:56:44.682Z,15.07
2022-11-15T08:59:14.718Z,15.52
2022-11-15T09:01:41.890Z,15.73
2022-11-15T09:04:09.155Z,16.95
2022-11-15T09:06:40.830Z,17.35
2022-11-15T09:09:10.281Z,16.80
2022-11-15T09:11:40.588Z,16.95
2022-11-15T09:14:07.722Z,18.90
2022-11-15T09:16:35.282Z,16.67
2022-11-15T09:19:03.207Z,16.15
2022-11-15T09:21:33.274Z,16.83
2022-11-15T09:24:00.561Z,16.50
2022-11-15T09:26:27.685Z,15.63
2022-11-15T09:28:54.863Z,13.20
2022-11-15T09:31:22.434Z,18.00
2022-11-15T09:33:49.618Z,14.97
2022-11-15T09:36:17.878Z,13.43
2022-11-15T09:38:45.023Z,11.93
2022-11-15T09:41:28.255Z,13.63
2022-11-15T09:44:07.401Z,11.98
2022-11-15T09:46:53.150Z,14.97
2022-11-15T09:49:20.637Z,10.90
2022-11-15T09:51:50.984Z,11.52
2022-11-15T09:57:22.090Z,11.90
2022-11-15T10:00:30.760Z,11.60
2022-11-15T10:03:20.715Z,10.10
2022-11-15T10:05:48.883Z,11.82
2022-11-15T10:08:35.643Z,9.80
2022-11-15T10:11:35.724Z,9.07
2022-11-15T10:13:53.626Z,10.53
2022-11-15T10:16:30.026Z,10.55
2022-11-15T10:19:00.105Z,10.50
2022-11-15T10:21:34.439Z,9.38
2022-11-15T10:24:01.564Z,9.48
2022-11-15T10:26:29.568Z,11.63
2022-11-15T10:28:56.607Z,8.20
2022-11-15T10:31:28.603Z,12.93
2022-11-15T10:34:21.729Z,9.63
2022-11-15T10:36:55.996Z,7.35
2022-11-15T10:39:23.149Z,8.97
2022-11-15T10:41:50.356Z,7.47
2022-11-15T10:44:33.387Z,8.80
2022-11-15T10:47:00.605Z,9.50
2022-11-15T10:49:29.633Z,6.78
2022-11-15T10:51:58.504Z,7.60
2022-11-15T10:54:26.948Z,6.32
2022-11-15T10:56:58.286Z,6.50
2022-11-15T10:59:38.640Z,5.72
2022-11-15T11:02:24.973Z,6.45
2022-11-15T11:04:52.879Z,5.80
2022-11-15T11:07:24.626Z,7.05
2022-11-15T11:10:02.829Z,6.60
2022-11-15T11:12:32.420Z,6.60
2022-11-15T11:15:02.795Z,5.85
2022-11-15T11:17:32.686Z,8.87
2022-11-15T11:20:18.621Z,4.95
2022-11-15T11:22:49.022Z,6.07
2022-11-15T11:25:34.683Z,6.32
2022-11-15T11:28:23.997Z,4.50
2022-11-15T11:30:51.137Z,6.07
2022-11-15T11:33:20.197Z,6.72
2022-11-15T11:35:59.334Z,6.85
2022-11-15T11:38:26.598Z,4.68
2022-11-15T11:41:06.175Z,3.75
2022-11-15T11:43:42.660Z,4.47
2022-11-15T11:46:15.622Z,3.70
2022-11-15T11:48:46.952Z,5.95
2022-11-15T11:51:32.666Z,5.13
2022-11-15T11:54:02.462Z,5.97
2022-11-15T11:56:31.300Z,5.60
2022-11-15T11:59:08.982Z,5.00
2022-11-15T12:01:38.023Z,4.22
2022-11-15T12:04:11.266Z,4.95
2022-11-15T12:06:47.246Z,4.72
2022-11-15T12:09:17.431Z,2.77
2022-11-15T12:12:07.993Z,4.57
2022-11-15T12:14:42.293Z,4.68
2022-11-15T12:17:13.177Z,4.10
2022-11-15T12:19:41.160Z,7.25
2022-11-15T12:22:15.024Z,4.10
2022-11-15T12:24:44.247Z,4.40
2022-11-15T12:27:26.574Z,4.63
2022-11-15T12:30:00.159Z,8.48
2022-11-15T12:32:29.662Z,4.82
2022-11-15T12:34:57.296Z,3.93
2022-11-15T12:37:35.200Z,4.57
2022-11-15T12:40:11.311Z,5.55
2022-11-15T12:42:58.771Z,3.95
2022-11-15T12:45:27.741Z,2.67
2022-11-15T12:47:54.920Z,4.67
2022-11-15T12:50:41.228Z,5.22
2022-11-15T12:53:26.657Z,3.78
2022-11-15T12:56:05.843Z,5.55
2022-11-15T12:58:53.470Z,5.57
2022-11-15T13:01:38.742Z,4.40
2022-11-15T13:04:15.513Z,3.47
2022-11-15T13:06:44.295Z,6.75
2022-11-15T13:09:29.493Z,6.30
2022-11-15T13:11:57.512Z,5.25
2022-11-15T13:14:40.858Z,6.37
2022-11-15T13:17:25.451Z,5.40
2022-11-15T13:19:59.886Z,3.88
2022-11-15T13:22:46.177Z,6.63
2022-11-15T13:25:38.214Z,4.95
2022-11-15T13:28:11.566Z,6.00
2022-11-15T13:30:38.881Z,4.78
2022-11-15T13:33:17.134Z,5.18
2022-11-15T13:35:48.367Z,5.45
2022-11-15T13:38:28.137Z,5.65
2022-11-15T13:40:55.795Z,5.07
2022-11-15T13:43:23.850Z,7.88
2022-11-15T13:46:12.119Z,4.75
2022-11-15T13:48:39.851Z,6.18
2022-11-15T13:51:10.426Z,3.47
2022-11-15T13:53:39.974Z,6.03
2022-11-15T13:56:07.742Z,4.40
2022-11-15T13:58:35.138Z,5.55
2022-11-15T14:01:03.684Z,6.43
2022-11-15T14:03:35.918Z,4.30
2022-11-15T14:06:15.288Z,4.90
2022-11-15T14:08:43.733Z,7.05
2022-11-15T14:11:16.763Z,5.68
2022-11-15T14:14:03.966Z,9.00
2022-11-15T14:16:36.614Z,4.95
2022-11-15T14:19:04.201Z,6.17
2022-11-15T14:21:31.759Z,4.90
2022-11-15T14:24:17.590Z,5.20
2022-11-15T14:26:44.916Z,5.25
2022-11-15T14:29:28.073Z,4.55
2022-11-15T14:31:56.129Z,4.57
2022-11-15T14:34:23.498Z,5.40
2022-11-15T14:36:50.663Z,5.53
2022-11-15T14:39:17.902Z,5.90
2022-11-15T14:41:45.046Z,5.40
2022-11-15T14:44:13.330Z,4.10
2022-11-15T14:46:40.578Z,3.55
2022-11-15T14:49:07.731Z,5.60
2022-11-15T14:51:35.287Z,6.72
2022-11-15T14:54:02.447Z,7.30
2022-11-15T14:56:29.731Z,5.13
2022-11-15T14:58:56.967Z,4.03
2022-11-15T15:01:27.723Z,3.80
2022-11-15T15:03:57.894Z,4.63
2022-11-15T15:06:25.051Z,5.47
2022-11-15T15:08:52.121Z,5.30
2022-11-15T15:11:33.605Z,3.95
2022-11-15T15:14:02.067Z,6.15
2022-11-15T15:16:29.169Z,5.80
2022-11-15T15:18:56.226Z,6.13
2022-11-15T15:21:23.348Z,5.70
2022-11-15T15:23:50.577Z,5.90
2022-11-15T15:26:17.809Z,6.18
2022-11-15T15:28:44.895Z,6.70
2022-11-15T15:31:12.233Z,5.13
2022-11-15T15:33:39.403Z,5.50
2022-11-15T15:36:06.877Z,6.85
2022-11-15T15:38:34.312Z,4.53
2022-11-15T15:41:03.761Z,3.35
2022-11-15T15:43:30.837Z,3.90
2022-11-15T15:45:57.910Z,4.73
2022-11-15T15:48:25.020Z,5.50
2022-11-15T15:50:52.133Z,5.50
2022-11-15T15:53:19.221Z,4.30
2022-11-15T15:55:46.343Z,7.13
2022-11-15T15:58:13.464Z,4.87
2022-11-15T16:00:40.971Z,3.42
2022-11-15T16:03:08.225Z,3.92
2022-11-15T16:05:35.378Z,3.65
2022-11-15T16:08:02.506Z,5.35
2022-11-15T16:10:32.405Z,2.67
2022-11-15T16:12:59.625Z,3.33
2022-11-15T16:15:31.713Z,4.70
2022-11-15T16:17:59.762Z,2.88
2022-11-15T16:20:38.042Z,2.60
2022-11-15T16:23:09.157Z,3.23
2022-11-15T16:25:44.052Z,3.80
2022-11-15T16:28:21.898Z,3.92
2022-11-15T16:30:53.895Z,3.95
2022-11-15T16:33:23.665Z,5.68
2022-11-15T16:35:50.844Z,5.00
2022-11-15T16:38:18.366Z,3.50
2022-11-15T16:40:45.797Z,5.50
2022-11-15T16:43:13.094Z,3.42
2022-11-15T16:45:40.510Z,3.88
2022-11-15T16:48:07.635Z,3.93
2022-11-15T16:50:41.561Z,4.18
2022-11-15T16:53:08.737Z,4.57
2022-11-15T16:55:35.891Z,3.85
2022-11-15T16:58:03.129Z,5.18
2022-11-15T17:00:30.445Z,2.57
2022-11-15T17:02:58.537Z,5.35
2022-11-15T17:05:27.765Z,4.55
2022-11-15T17:07:54.781Z,4.85
2022-11-15T17:10:22.578Z,5.25
2022-11-15T17:12:50.285Z,3.33
2022-11-15T17:15:17.833Z,8.25
2022-11-15T17:17:45.142Z,4.88
2022-11-15T17:20:16.638Z,6.07
2022-11-15T17:22:43.782Z,5.40
2022-11-15T17:25:11.041Z,5.90
2022-11-15T17:27:38.190Z,5.03
2022-11-15T17:30:06.193Z,5.00
2022-11-15T17:32:33.309Z,6.93
2022-11-15T17:35:00.359Z,5.00
2022-11-15T17:37:27.415Z,5.40
2022-11-15T17:39:54.457Z,4.25
2022-11-15T17:42:21.542Z,6.30
2022-11-15T17:44:48.614Z,7.43
2022-11-15T17:47:15.754Z,6.43
2022-11-15T17:49:42.872Z,5.27
2022-11-15T17:52:09.962Z,7.68
2022-11-15T17:54:37.047Z,5.13
2022-11-15T17:57:04.185Z,6.38
2022-11-15T17:59:31.739Z,6.05
2022-11-15T18:01:59.053Z,8.13
2022-11-15T18:04:28.204Z,6.78
2022-11-15T18:06:56.369Z,6.00
2022-11-15T18:09:24.709Z,7.43
2022-11-15T18:11:53.461Z,7.25
2022-11-15T18:14:20.588Z,6.07
2022-11-15T18:16:47.897Z,7.45
2022-11-15T18:19:15.104Z,7.63
2022-11-15T18:22:04.067Z,8.70
2022-11-15T18:24:42.890Z,5.85
2022-11-15T18:27:10.277Z,5.77
2022-11-15T18:29:37.738Z,7.30
2022-11-15T18:32:11.266Z,7.38
2022-11-15T18:34:38.601Z,6.80
2022-11-15T18:37:05.702Z,8.75
2022-11-15T18:39:32.947Z,7.63
2022-11-15T18:42:00.169Z,6.47
2022-11-15T18:44:29.384Z,8.45
2022-11-15T18:46:56.725Z,7.00
2022-11-15T18:49:23.900Z,8.30
2022-11-15T18:51:51.046Z,6.60
2022-11-15T18:54:18.286Z,8.88
2022-11-15T18:56:46.838Z,8.48
2022-11-15T18:59:15.011Z,8.02
2022-11-15T19:01:43.396Z,8.45
2022-11-15T19:04:15.584Z,7.53
2022-11-15T19:06:43.568Z,7.28
2022-11-15T19:09:11.466Z,7.85
2022-11-15T19:11:40.111Z,7.85
2022-11-15T19:14:08.348Z,8.30
2022-11-15T19:16:39.410Z,7.27
2022-11-15T19:19:07.926Z,8.52
2022-11-15T19:21:35.342Z,9.60
2022-11-15T19:24:02.766Z,7.80
2022-11-15T19:26:30.462Z,8.85
2022-11-15T19:28:58.965Z,9.30
2022-11-15T19:31:27.235Z,9.57
2022-11-15T19:33:54.758Z,8.07
2022-11-15T19:36:35.129Z,7.47
2022-11-15T19:39:08.388Z,8.35
2022-11-15T19:41:36.069Z,11.17
2022-11-15T19:44:03.178Z,9.05
2022-11-15T19:46:30.283Z,10.18
2022-11-15T19:48:57.352Z,9.35
2022-11-15T19:51:25.464Z,10.50
2022-11-15T19:53:56.668Z,11.07
2022-11-15T19:56:24.296Z,11.55
2022-11-15T19:58:52.636Z,9.98
2022-11-15T20:01:21.326Z,11.52
2022-11-15T20:03:49.023Z,9.63
2022-11-15T20:06:19.813Z,9.63
2022-11-15T20:08:47.958Z,8.82
2022-11-15T20:11:15.925Z,9.85
2022-11-15T20:13:43.673Z,10.82
2022-11-15T20:16:14.911Z,10.73
2022-11-15T20:18:41.974Z,9.90
2022-11-15T20:21:09.640Z,10.15
2022-11-15T20:23:36.719Z,12.18
2022-11-15T20:26:03.796Z,10.65
2022-11-15T20:28:31.219Z,10.82
2022-11-15T20:30:59.669Z,9.63
2022-11-15T20:33:27.203Z,9.60
2022-11-15T20:35:54.484Z,13.27
2022-11-15T20:38:22.145Z,11.43
2022-11-15T20:40:49.954Z,12.77
2022-11-15T20:43:18.836Z,12.07
2022-11-15T20:45:47.364Z,11.57
2022-11-15T20:48:14.689Z,10.63
2022-11-15T20:50:43.582Z,11.60
2022-11-15T20:53:12.068Z,10.90
2022-11-15T20:55:47.815Z,10.47
2022-11-15T20:58:15.697Z,11.35
2022-11-15T21:00:43.243Z,12.15
2022-11-15T21:03:10.548Z,12.65
2022-11-15T21:05:42.282Z,11.02
2022-11-15T21:08:09.807Z,13.97
2022-11-15T21:10:55.477Z,13.27
2022-11-15T21:13:22.871Z,14.85
2022-11-15T21:15:50.010Z,12.25
2022-11-15T21:18:17.273Z,12.52
2022-11-15T21:20:44.315Z,11.90
2022-11-15T21:23:12.181Z,15.82
2022-11-15T21:25:39.250Z,14.35
2022-11-15T21:28:06.336Z,15.15
2022-11-15T21:30:33.538Z,12.93
2022-11-15T21:33:00.658Z,16.30
2022-11-15T21:35:27.810Z,15.00
2022-11-15T21:37:56.997Z,15.55
2022-11-15T21:40:25.026Z,15.52
2022-11-15T21:42:52.051Z,15.55
2022-11-15T21:45:19.111Z,15.77
2022-11-15T21:47:46.851Z,18.35
2022-11-15T21:50:14.316Z,17.25
2022-11-15T21:52:41.607Z,16.60
2022-11-15T21:55:09.158Z,15.52
2022-11-15T21:57:36.199Z,17.40
2022-11-15T22:00:22.020Z,16.17
2022-11-15T22:02:49.170Z,16.58
2022-11-15T22:05:16.502Z,16.90
2022-11-15T22:07:43.742Z,17.05
2022-11-15T22:10:11.133Z,15.00
2022-11-15T22:12:38.516Z,17.00
2022-11-15T22:15:05.851Z,15.60
2022-11-15T22:17:51.625Z,16.75
2022-11-15T22:23:06.150Z,18.07
2022-11-15T22:25:33.787Z,15.48
2022-11-15T22:28:01.039Z,15.95
2022-11-15T22:30:28.392Z,15.57
2022-11-15T22:32:55.515Z,14.73
2022-11-15T22:35:22.670Z,16.03
2022-11-15T22:37:49.804Z,17.02
2022-11-15T22:40:17.053Z,17.63
2022-11-15T22:42:44.243Z,16.85
2022-11-15T22:45:11.674Z,15.07
2022-11-15T22:47:38.741Z,20.70
2022-11-15T22:50:06.477Z,16.92
2022-11-15T22:52:33.531Z,15.88
2022-11-15T22:55:00.583Z,16.15
2022-11-15T22:57:27.680Z,15.20
2022-11-15T22:59:55.002Z,15.47
2022-11-15T23:02:22.037Z,16.67
2022-11-15T23:04:49.069Z,17.15
2022-11-15T23:07:16.131Z,17.55
2022-11-15T23:09:46.533Z,15.38
2022-11-15T23:12:36.793Z,17.70
2022-11-15T23:15:03.931Z,17.20
2022-11-15T23:17:32.355Z,16.88
2022-11-15T23:20:11.167Z,17.08
2022-11-15T23:22:49.766Z,15.90
2022-11-15T23:25:16.835Z,16.13
2022-11-15T23:27:43.858Z,19.80
2022-11-15T23:30:29.905Z,16.33
2022-11-15T23:33:15.774Z,19.48
2022-11-15T23:35:42.987Z,20.35
2022-11-15T23:38:10.107Z,19.07
2022-11-15T23:40:37.227Z,16.80
2022-11-15T23:43:04.318Z,18.70
2022-11-15T23:45:31.595Z,18.83
2022-11-15T23:48:01.550Z,17.98
2022-11-15T23:50:28.995Z,20.03
2022-11-15T23:52:56.022Z,19.48
2022-11-15T23:55:23.108Z,17.83
2022-11-15T23:57:50.282Z,22.83
